Time;durP1;ratioP1;P1;durP2;ratioP2;P2;SDS_P1;SDS_P2;PMS_P1;PMS_P2;Temp;Humidity;BMP_temperature;BMP_pressure;BME280_temperature;BME280_humidity;BME280_pressure;Samples;Min_cycle;Max_cycle;Signal;HPM_P1;HPM_P2
2023/11/20 00:00:39;;;;;;;;;;;;;;;;;;1905090;28;7075;-64
2023/11/20 00:01:36;;;;;;;;;;;;;;;;;;1906007;28;7008;-63
2023/11/20 00:02:34;;;;;;;;;;;;;;;;;;1905931;28;8147;-64
2023/11/20 00:03:31;;;;;;;;;;;;;;;;;;1906703;28;7116;-64
2023/11/20 00:04:29;;;;;;;;;;;;;;;;;;1906094;28;7043;-64
2023/11/20 00:05:26;;;;;;;;;;;;;;;;;;1906689;28;7016;-64
2023/11/20 00:06:24;;;;;;;;;;;;;;;;;;1906634;28;7131;-63
2023/11/20 00:07:21;;;;;;;;;;;;;;;;;;1907088;28;8118;-63
2023/11/20 00:08:18;;;;;;;;;;;;;;;;;;1906084;28;7135;-64
2023/11/20 00:09:16;;;;;;;;;;;;;;;;;;1906069;28;7008;-63
2023/11/20 00:10:13;;;;;;;;;;;;;;;;;;1905926;28;7106;-64
2023/11/20 00:11:13;;;;;;;;;;;;;;;;;;1905818;28;7013;-64
2023/11/20 00:12:10;;;;;;;;;;;;;;;;;;1906330;28;7004;-64
2023/11/20 00:13:08;;;;;;;;;;;;;;;;;;1906212;28;7147;-64
2023/11/20 00:14:06;;;;;;;;;;;;;;;;;;1906604;28;7143;-64
2023/11/20 00:15:04;;;;;;;;;;;;;;;;;;1906395;28;7027;-63
2023/11/20 00:16:01;;;;;;;;;;;;;;;;;;1905757;28;7156;-64
2023/11/20 00:16:59;;;;;;;;;;;;;;;;;;1906322;28;7088;-63
2023/11/20 00:17:58;;;;;;;;;;;;;;;;;;1906263;28;7037;-64
2023/11/20 00:18:55;;;;;;;;;;;;;;;;;;1905297;28;7033;-64
2023/11/20 00:19:53;;;;;;;;;;;;;;;;;;1906314;28;7008;-64
2023/11/20 00:20:50;;;;;;;;;;;;;;;;;;1906189;28;7120;-64
2023/11/20 00:21:48;;;;;;;;;;;;;;;;;;1906295;28;7148;-64
2023/11/20 00:22:46;;;;;;;;;;;;;;;;;;1905505;28;7064;-63
2023/11/20 00:23:43;;;;;;;;;;;;;;;;;;1906081;28;8057;-64
2023/11/20 00:24:41;;;;;;;;;;;;;;;;;;1906428;28;7077;-64
2023/11/20 00:25:38;;;;;;;;;;;;;;;;;;1906530;28;7999;-64
2023/11/20 00:26:36;;;;;;;;;;;;;;;;;;1905669;28;7016;-64
2023/11/20 00:27:34;;;;;;;;;;;;;;;;;;1905900;28;7064;-64
2023/11/20 00:28:31;;;;;;;;;;;;;;;;;;1906030;28;7007;-64
2023/11/20 00:29:29;;;;;;;;;;;;;;;;;;1905417;28;7050;-64
2023/11/20 00:30:26;;;;;;;;;;;;;;;;;;1905982;28;7113;-64
2023/11/20 00:31:24;;;;;;;;;;;;;;;;;;1906672;28;7013;-63
2023/11/20 00:32:21;;;;;;;;;;;;;;;;;;1906234;28;7195;-64
2023/11/20 00:33:19;;;;;;;;;;;;;;;;;;1905655;28;7112;-64
2023/11/20 00:34:17;;;;;;;;;;;;;;;;;;1905919;28;7338;-64
2023/11/20 00:35:16;;;;;;;;;;;;;;;;;;1906358;28;7012;-64
2023/11/20 00:36:13;;;;;;;;;;;;;;;;;;1906290;28;7130;-64
2023/11/20 00:37:11;;;;;;;;;;;;;;;;;;1906266;28;7859;-64
2023/11/20 00:38:08;;;;;;;;;;;;;;;;;;1907119;28;7038;-63
2023/11/20 00:39:06;;;;;;;;;;;;;;;;;;1906174;28;7049;-64
2023/11/20 00:40:05;;;;;;;;;;;;;;;;;;1906199;28;7112;-64
2023/11/20 00:41:04;;;;;;;;;;;;;;;;;;1905477;28;7147;-64
2023/11/20 00:42:01;;;;;;;;;;;;;;;;;;1905764;28;7840;-63
2023/11/20 00:43:00;;;;;;;;;;;;;;;;;;1906160;28;7009;-63
2023/11/20 00:43:59;;;;;;;;;;;;;;;;;;1905974;28;7009;-64
2023/11/20 00:44:56;;;;;;;;;;;;;;;;;;1906746;28;7009;-64
2023/11/20 00:45:54;;;;;;;;;;;;;;;;;;1905664;28;7133;-64
2023/11/20 00:46:51;;;;;;;;;;;;;;;;;;1905917;28;7009;-64
2023/11/20 00:47:49;;;;;;;;;;;;;;;;;;1905638;28;7104;-64
2023/11/20 00:48:46;;;;;;;;;;;;;;;;;;1906440;28;8019;-63
2023/11/20 00:49:44;;;;;;;;;;;;;;;;;;1905357;28;7005;-64
2023/11/20 00:50:42;;;;;;;;;;;;;;;;;;1906273;28;7024;-64
2023/11/20 00:51:39;;;;;;;;;;;;;;;;;;1907032;28;7049;-64
2023/11/20 00:52:37;;;;;;;;;;;;;;;;;;1906625;28;7016;-64
2023/11/20 00:53:34;;;;;;;;;;;;;;;;;;1905264;28;7008;-64
2023/11/20 00:54:31;;;;;;;;;;;;;;;;;;1904537;28;7125;-64
2023/11/20 00:55:29;;;;;;;;;;;;;;;;;;1905325;28;7385;-63
2023/11/20 00:56:28;;;;;;;;;;;;;;;;;;1904583;28;7008;-64
2023/11/20 00:57:27;;;;;;;;;;;;;;;;;;1905479;28;7342;-64
2023/11/20 00:58:25;;;;;;;;;;;;;;;;;;1905189;28;7705;-63
2023/11/20 00:59:22;;;;;;;;;;;;;;;;;;1904815;28;7009;-63
2023/11/20 01:00:20;;;;;;;;;;;;;;;;;;1904428;28;7095;-64
2023/11/20 01:01:18;;;;;;;;;;;;;;;;;;1904843;28;7128;-63
2023/11/20 01:02:15;;;;;;;;;;;;;;;;;;1903334;28;7028;-64
2023/11/20 01:03:13;;;;;;;;;;;;;;;;;;1904016;28;8126;-63
2023/11/20 01:04:10;;;;;;;;;;;;;;;;;;1905409;28;7008;-64
2023/11/20 01:05:08;;;;;;;;;;;;;;;;;;1905062;28;8126;-64
2023/11/20 01:06:08;;;;;;;;;;;;;;;;;;1904827;28;7013;-64
2023/11/20 01:07:06;;;;;;;;;;;;;;;;;;1904615;28;7005;-64
2023/11/20 01:08:03;;;;;;;;;;;;;;;;;;1904558;28;7092;-64
2023/11/20 01:09:01;;;;;;;;;;;;;;;;;;1905123;28;7091;-64
2023/11/20 01:09:58;;;;;;;;;;;;;;;;;;1904274;28;8044;-64
2023/11/20 01:10:56;;;;;;;;;;;;;;;;;;1902783;28;8404;-64
2023/11/20 01:11:53;;;;;;;;;;;;;;;;;;1904439;28;7108;-63
2023/11/20 01:12:51;;;;;;;;;;;;;;;;;;1904356;28;8019;-64
2023/11/20 01:13:48;;;;;;;;;;;;;;;;;;1904843;28;7116;-64
2023/11/20 01:14:46;;;;;;;;;;;;;;;;;;1904673;28;7005;-63
2023/11/20 01:15:44;;;;;;;;;;;;;;;;;;1904809;28;7024;-64
2023/11/20 01:16:41;;;;;;;;;;;;;;;;;;1904846;28;7013;-64
2023/11/20 01:17:39;;;;;;;;;;;;;;;;;;1905055;28;8134;-64
2023/11/20 01:18:37;;;;;;;;;;;;;;;;;;1903752;28;7023;-64
2023/11/20 01:19:34;;;;;;;;;;;;;;;;;;1904443;28;7005;-64
2023/11/20 01:20:33;;;;;;;;;;;;;;;;;;1904537;28;8033;-64
2023/11/20 01:21:31;;;;;;;;;;;;;;;;;;1904999;28;7108;-64
2023/11/20 01:22:28;;;;;;;;;;;;;;;;;;1904520;28;8122;-64
2023/11/20 01:23:26;;;;;;;;;;;;;;;;;;1904906;28;7976;-64
2023/11/20 01:24:23;;;;;;;;;;;;;;;;;;1904958;28;7012;-64
2023/11/20 01:25:21;;;;;;;;;;;;;;;;;;1904714;28;7004;-64
2023/11/20 01:26:18;;;;;;;;;;;;;;;;;;1904493;28;7194;-64
2023/11/20 01:27:16;;;;;;;;;;;;;;;;;;1904380;28;7012;-64
2023/11/20 01:28:13;;;;;;;;;;;;;;;;;;1904509;28;7078;-64
2023/11/20 01:29:10;;;;;;;;;;;;;;;;;;1905225;28;7092;-64
2023/11/20 01:30:09;;;;;;;;;;;;;;;;;;1905413;28;7291;-64
2023/11/20 01:31:06;;;;;;;;;;;;;;;;;;1904835;28;7012;-63
2023/11/20 01:32:04;;;;;;;;;;;;;;;;;;1904621;28;7008;-63
2023/11/20 01:33:01;;;;;;;;;;;;;;;;;;1904873;28;8045;-64
2023/11/20 01:33:59;;;;;;;;;;;;;;;;;;1904424;28;7009;-64
2023/11/20 01:34:57;;;;;;;;;;;;;;;;;;1904513;28;7338;-64
2023/11/20 01:35:54;;;;;;;;;;;;;;;;;;1904642;28;7013;-63
2023/11/20 01:36:52;;;;;;;;;;;;;;;;;;1905253;28;7294;-63
2023/11/20 01:37:49;;;;;;;;;;;;;;;;;;1904746;28;7009;-63
2023/11/20 01:38:50;;;;;;;;;;;;;;;;;;1903720;28;7131;-63
2023/11/20 01:39:48;;;;;;;;;;;;;;;;;;1903167;28;7264;-63
2023/11/20 01:40:51;;;;;;;;;;;;;;;;;;1904778;28;7009;-63
2023/11/20 01:41:49;;;;;;;;;;;;;;;;;;1904132;28;7108;-63
2023/11/20 01:42:46;;;;;;;;;;;;;;;;;;1904874;28;7049;-64
2023/11/20 01:43:44;;;;;;;;;;;;;;;;;;1903688;28;7103;-64
2023/11/20 01:44:41;;;;;;;;;;;;;;;;;;1904767;28;8058;-64
2023/11/20 01:45:38;;;;;;;;;;;;;;;;;;1904101;28;7049;-63
2023/11/20 01:46:36;;;;;;;;;;;;;;;;;;1903550;28;7109;-64
2023/11/20 01:47:37;;;;;;;;;;;;;;;;;;1904859;28;7013;-63
2023/11/20 01:48:36;;;;;;;;;;;;;;;;;;1904724;28;7017;-63
2023/11/20 01:49:34;;;;;;;;;;;;;;;;;;1904846;28;8043;-64
2023/11/20 01:50:34;;;;;;;;;;;;;;;;;;1903432;28;8197;-63
2023/11/20 01:51:31;;;;;;;;;;;;;;;;;;1905056;28;7020;-64
2023/11/20 01:52:29;;;;;;;;;;;;;;;;;;1904612;28;7016;-64
2023/11/20 01:53:28;;;;;;;;;;;;;;;;;;1904789;28;8033;-63
2023/11/20 01:54:27;;;;;;;;;;;;;;;;;;1904530;28;7013;-63
2023/11/20 01:55:24;;;;;;;;;;;;;;;;;;1904620;28;7010;-64
2023/11/20 01:56:24;;;;;;;;;;;;;;;;;;1904166;28;7016;-63
2023/11/20 01:57:21;;;;;;;;;;;;;;;;;;1903935;28;7224;-63
2023/11/20 01:58:19;;;;;;;;;;;;;;;;;;1903828;28;8054;-63
2023/11/20 01:59:16;;;;;;;;;;;;;;;;;;1903274;28;7012;-64
2023/11/20 02:00:16;;;;;;;;;;;;;;;;;;1904955;28;7951;-64
2023/11/20 02:01:14;;;;;;;;;;;;;;;;;;1904439;28;7012;-63
2023/11/20 02:02:11;;;;;;;;;;;;;;;;;;1904559;28;7048;-63
2023/11/20 02:03:10;;;;;;;;;;;;;;;;;;1903645;28;7036;-63
2023/11/20 02:04:08;;;;;;;;;;;;;;;;;;1904563;28;7012;-63
2023/11/20 02:05:06;;;;;;;;;;;;;;;;;;1903526;28;7017;-63
2023/11/20 02:06:04;;;;;;;;;;;;;;;;;;1904062;28;7133;-63
2023/11/20 02:07:04;;;;;;;;;;;;;;;;;;1904296;28;7052;-64
2023/11/20 02:08:01;;;;;;;;;;;;;;;;;;1905037;28;7013;-63
2023/11/20 02:08:59;;;;;;;;;;;;;;;;;;1902570;28;8022;-63
2023/11/20 02:09:56;;;;;;;;;;;;;;;;;;1904327;28;8057;-63
2023/11/20 02:10:55;;;;;;;;;;;;;;;;;;1903965;28;7095;-64
2023/11/20 02:11:53;;;;;;;;;;;;;;;;;;1905035;28;7011;-64
2023/11/20 02:12:51;;;;;;;;;;;;;;;;;;1905104;28;7100;-63
2023/11/20 02:13:51;;;;;;;;;;;;;;;;;;1903887;28;9004;-64
2023/11/20 02:14:49;;;;;;;;;;;;;;;;;;1904384;28;7009;-63
2023/11/20 02:15:47;;;;;;;;;;;;;;;;;;1904016;28;7139;-64
2023/11/20 02:16:44;;;;;;;;;;;;;;;;;;1904424;28;7008;-63
2023/11/20 02:17:42;;;;;;;;;;;;;;;;;;1903736;28;7121;-64
2023/11/20 02:18:41;;;;;;;;;;;;;;;;;;1904557;28;8109;-63
2023/11/20 02:19:44;;;;;;;;;;;;;;;;;;1904899;28;7175;-64
2023/11/20 02:20:41;;;;;;;;;;;;;;;;;;1904113;28;7042;-63
2023/11/20 02:21:39;;;;;;;;;;;;;;;;;;1904899;28;7012;-64
2023/11/20 02:22:36;;;;;;;;;;;;;;;;;;1902964;28;7024;-63
2023/11/20 02:23:34;;;;;;;;;;;;;;;;;;1904365;28;7161;-64
2023/11/20 02:24:31;;;;;;;;;;;;;;;;;;1904000;28;7212;-64
2023/11/20 02:25:29;;;;;;;;;;;;;;;;;;1904059;28;7119;-64
2023/11/20 02:26:32;;;;;;;;;;;;;;;;;;1904598;28;7200;-64
2023/11/20 02:27:35;;;;;;;;;;;;;;;;;;1903730;28;7119;-63
2023/11/20 02:28:37;;;;;;;;;;;;;;;;;;1903249;28;7048;-63
2023/11/20 02:29:44;;;;;;;;;;;;;;;;;;1903467;28;7132;-64
2023/11/20 02:30:42;;;;;;;;;;;;;;;;;;1904007;28;7099;-64
2023/11/20 02:31:41;;;;;;;;;;;;;;;;;;1905295;28;7016;-63
2023/11/20 02:32:38;;;;;;;;;;;;;;;;;;1905425;28;7124;-63
2023/11/20 02:33:36;;;;;;;;;;;;;;;;;;1904420;28;7139;-64
2023/11/20 02:34:36;;;;;;;;;;;;;;;;;;1904503;28;7013;-63
2023/11/20 02:35:33;;;;;;;;;;;;;;;;;;1903896;28;7049;-63
2023/11/20 02:36:31;;;;;;;;;;;;;;;;;;1904315;28;7002;-64
2023/11/20 02:37:29;;;;;;;;;;;;;;;;;;1902694;28;7017;-64
2023/11/20 02:38:26;;;;;;;;;;;;;;;;;;1903731;28;7009;-64
2023/11/20 02:39:23;;;;;;;;;;;;;;;;;;1904148;28;7095;-64
2023/11/20 02:40:21;;;;;;;;;;;;;;;;;;1903991;28;8128;-64
2023/11/20 02:41:19;;;;;;;;;;;;;;;;;;1904655;28;7017;-63
2023/11/20 02:42:17;;;;;;;;;;;;;;;;;;1905067;28;7061;-64
2023/11/20 02:43:14;;;;;;;;;;;;;;;;;;1904173;28;7156;-63
2023/11/20 02:44:12;;;;;;;;;;;;;;;;;;1903944;28;7008;-64
2023/11/20 02:45:12;;;;;;;;;;;;;;;;;;1904092;28;7131;-64
2023/11/20 02:46:10;;;;;;;;;;;;;;;;;;1904335;28;7112;-63
2023/11/20 02:47:08;;;;;;;;;;;;;;;;;;1903220;28;7008;-64
2023/11/20 02:48:05;;;;;;;;;;;;;;;;;;1904311;28;8057;-64
2023/11/20 02:49:04;;;;;;;;;;;;;;;;;;1904259;28;7405;-64
2023/11/20 02:50:02;;;;;;;;;;;;;;;;;;1904056;28;7056;-63
2023/11/20 02:50:59;;;;;;;;;;;;;;;;;;1904271;28;7004;-63
2023/11/20 02:51:56;;;;;;;;;;;;;;;;;;1904350;28;7066;-64
2023/11/20 02:52:54;;;;;;;;;;;;;;;;;;1904020;28;7343;-63
2023/11/20 02:53:52;;;;;;;;;;;;;;;;;;1904371;28;7053;-64
2023/11/20 02:54:50;;;;;;;;;;;;;;;;;;1904293;28;7017;-64
2023/11/20 02:55:50;;;;;;;;;;;;;;;;;;1904710;28;7004;-63
2023/11/20 02:56:47;;;;;;;;;;;;;;;;;;1902526;28;8114;-63
2023/11/20 02:57:45;;;;;;;;;;;;;;;;;;1904083;28;7012;-64
2023/11/20 02:58:42;;;;;;;;;;;;;;;;;;1903791;28;8034;-64
2023/11/20 02:59:40;;;;;;;;;;;;;;;;;;1904302;28;7008;-63
2023/11/20 03:00:38;;;;;;;;;;;;;;;;;;1902394;28;7024;-63
2023/11/20 03:01:36;;;;;;;;;;;;;;;;;;1903702;28;7009;-63
2023/11/20 03:02:33;;;;;;;;;;;;;;;;;;1904018;28;7012;-64
2023/11/20 03:03:31;;;;;;;;;;;;;;;;;;1903724;28;8023;-63
2023/11/20 03:04:28;;;;;;;;;;;;;;;;;;1904489;28;7357;-64
2023/11/20 03:05:26;;;;;;;;;;;;;;;;;;1904202;28;7191;-63
2023/11/20 03:06:23;;;;;;;;;;;;;;;;;;1904435;28;7092;-63
2023/11/20 03:07:21;;;;;;;;;;;;;;;;;;1903452;28;7013;-64
2023/11/20 03:08:18;;;;;;;;;;;;;;;;;;1904501;28;7013;-63
2023/11/20 03:09:17;;;;;;;;;;;;;;;;;;1904544;28;7053;-64
2023/11/20 03:10:15;;;;;;;;;;;;;;;;;;1904175;28;7009;-63
2023/11/20 03:11:12;;;;;;;;;;;;;;;;;;1902939;28;7290;-63
2023/11/20 03:12:10;;;;;;;;;;;;;;;;;;1903726;28;7012;-64
2023/11/20 03:13:08;;;;;;;;;;;;;;;;;;1904232;28;7121;-64
2023/11/20 03:14:05;;;;;;;;;;;;;;;;;;1904007;28;7108;-64
2023/11/20 03:15:05;;;;;;;;;;;;;;;;;;1904727;28;7016;-64
2023/11/20 03:16:05;;;;;;;;;;;;;;;;;;1904266;28;7053;-63
2023/11/20 03:17:02;;;;;;;;;;;;;;;;;;1903943;28;7013;-64
2023/11/20 03:18:01;;;;;;;;;;;;;;;;;;1903096;28;8042;-64
2023/11/20 03:18:59;;;;;;;;;;;;;;;;;;1903593;28;7144;-64
2023/11/20 03:19:56;;;;;;;;;;;;;;;;;;1903489;28;7012;-63
2023/11/20 03:20:53;;;;;;;;;;;;;;;;;;1904182;28;7012;-64
2023/11/20 03:21:51;;;;;;;;;;;;;;;;;;1905033;28;7009;-64
2023/11/20 03:22:50;;;;;;;;;;;;;;;;;;1904320;28;7011;-63
2023/11/20 03:23:49;;;;;;;;;;;;;;;;;;1903826;28;7103;-64
2023/11/20 03:24:46;;;;;;;;;;;;;;;;;;1902058;28;7247;-64
2023/11/20 03:25:44;;;;;;;;;;;;;;;;;;1903856;28;7040;-63
2023/11/20 03:26:41;;;;;;;;;;;;;;;;;;1903874;28;7037;-63
2023/11/20 03:27:39;;;;;;;;;;;;;;;;;;1903873;28;7024;-63
2023/11/20 03:28:38;;;;;;;;;;;;;;;;;;1904655;28;7028;-63
2023/11/20 03:29:36;;;;;;;;;;;;;;;;;;1904767;28;7048;-64
2023/11/20 03:30:33;;;;;;;;;;;;;;;;;;1904627;28;7005;-64
2023/11/20 03:31:36;;;;;;;;;;;;;;;;;;1904380;28;8082;-64
2023/11/20 03:32:36;;;;;;;;;;;;;;;;;;1904275;28;7046;-64
2023/11/20 03:33:34;;;;;;;;;;;;;;;;;;1904204;28;7282;-64
2023/11/20 03:34:31;;;;;;;;;;;;;;;;;;1903301;28;7091;-64
2023/11/20 03:35:29;;;;;;;;;;;;;;;;;;1903842;28;7049;-64
2023/11/20 03:36:29;;;;;;;;;;;;;;;;;;1904068;28;7013;-64
2023/11/20 03:37:27;;;;;;;;;;;;;;;;;;1904132;28;7017;-64
2023/11/20 03:38:24;;;;;;;;;;;;;;;;;;1903603;28;7090;-64
2023/11/20 03:39:22;;;;;;;;;;;;;;;;;;1904193;28;7347;-64
2023/11/20 03:40:19;;;;;;;;;;;;;;;;;;1904169;28;7100;-64
2023/11/20 03:41:17;;;;;;;;;;;;;;;;;;1903505;28;7089;-64
2023/11/20 03:42:17;;;;;;;;;;;;;;;;;;1904322;28;7049;-64
2023/11/20 03:43:14;;;;;;;;;;;;;;;;;;1903104;28;7029;-64
2023/11/20 03:44:11;;;;;;;;;;;;;;;;;;1903448;28;7117;-63
2023/11/20 03:45:09;;;;;;;;;;;;;;;;;;1903436;28;7028;-63
2023/11/20 03:46:06;;;;;;;;;;;;;;;;;;1903999;28;7045;-64
2023/11/20 03:47:04;;;;;;;;;;;;;;;;;;1903893;28;8060;-63
2023/11/20 03:48:01;;;;;;;;;;;;;;;;;;1904056;28;8320;-63
2023/11/20 03:49:01;;;;;;;;;;;;;;;;;;1904074;28;7136;-63
2023/11/20 03:49:58;;;;;;;;;;;;;;;;;;1903687;28;7009;-63
2023/11/20 03:50:55;;;;;;;;;;;;;;;;;;1902785;28;7192;-64
2023/11/20 03:51:53;;;;;;;;;;;;;;;;;;1904042;28;8030;-63
2023/11/20 03:52:51;;;;;;;;;;;;;;;;;;1904697;28;7013;-64
2023/11/20 03:53:48;;;;;;;;;;;;;;;;;;1902314;28;7021;-64
2023/11/20 03:54:46;;;;;;;;;;;;;;;;;;1903322;28;7113;-64
2023/11/20 03:55:43;;;;;;;;;;;;;;;;;;1903946;28;7072;-64
2023/11/20 03:56:40;;;;;;;;;;;;;;;;;;1903936;28;8149;-64
2023/11/20 03:57:38;;;;;;;;;;;;;;;;;;1903827;28;8106;-63
2023/11/20 03:58:35;;;;;;;;;;;;;;;;;;1904095;28;8089;-64
2023/11/20 03:59:33;;;;;;;;;;;;;;;;;;1903978;28;7096;-64
2023/11/20 04:00:31;;;;;;;;;;;;;;;;;;1903803;28;7093;-64
2023/11/20 04:01:28;;;;;;;;;;;;;;;;;;1903697;28;7095;-63
2023/11/20 04:02:26;;;;;;;;;;;;;;;;;;1903051;28;7013;-64
2023/11/20 04:03:23;;;;;;;;;;;;;;;;;;1902729;28;7034;-63
2023/11/20 04:04:21;;;;;;;;;;;;;;;;;;1904099;28;7250;-63
2023/11/20 04:05:18;;;;;;;;;;;;;;;;;;1903858;28;7036;-63
2023/11/20 04:06:15;;;;;;;;;;;;;;;;;;1903425;28;7330;-64
2023/11/20 04:07:13;;;;;;;;;;;;;;;;;;1904031;28;7008;-63
2023/11/20 04:08:11;;;;;;;;;;;;;;;;;;1903522;28;7045;-63
2023/11/20 04:09:08;;;;;;;;;;;;;;;;;;1904902;28;7314;-64
2023/11/20 04:10:07;;;;;;;;;;;;;;;;;;1903692;28;7016;-63
2023/11/20 04:11:05;;;;;;;;;;;;;;;;;;1903383;28;7009;-63
2023/11/20 04:12:03;;;;;;;;;;;;;;;;;;1903476;28;7088;-64
2023/11/20 04:13:00;;;;;;;;;;;;;;;;;;1904041;28;7020;-64
2023/11/20 04:13:58;;;;;;;;;;;;;;;;;;1904059;28;7017;-63
2023/11/20 04:14:56;;;;;;;;;;;;;;;;;;1903513;28;7092;-63
2023/11/20 04:15:53;;;;;;;;;;;;;;;;;;1903535;28;8038;-63
2023/11/20 04:16:51;;;;;;;;;;;;;;;;;;1903865;28;7041;-64
2023/11/20 04:17:49;;;;;;;;;;;;;;;;;;1902407;28;7299;-63
2023/11/20 04:18:47;;;;;;;;;;;;;;;;;;1903290;28;7045;-63
2023/11/20 04:19:44;;;;;;;;;;;;;;;;;;1903210;28;7115;-63
2023/11/20 04:20:42;;;;;;;;;;;;;;;;;;1903337;28;7013;-64
2023/11/20 04:21:41;;;;;;;;;;;;;;;;;;1903882;28;7009;-64
2023/11/20 04:22:39;;;;;;;;;;;;;;;;;;1903127;28;8265;-63
2023/11/20 04:23:36;;;;;;;;;;;;;;;;;;1902688;28;7104;-63
2023/11/20 04:24:33;;;;;;;;;;;;;;;;;;1903150;28;7120;-63
2023/11/20 04:25:31;;;;;;;;;;;;;;;;;;1903495;28;7013;-64
2023/11/20 04:26:28;;;;;;;;;;;;;;;;;;1902948;28;7049;-63
2023/11/20 04:27:26;;;;;;;;;;;;;;;;;;1903552;28;7083;-63
2023/11/20 04:28:23;;;;;;;;;;;;;;;;;;1904844;28;7016;-63
2023/11/20 04:29:21;;;;;;;;;;;;;;;;;;1904257;28;7120;-64
2023/11/20 04:30:19;;;;;;;;;;;;;;;;;;1905126;28;7615;-64
2023/11/20 04:31:17;;;;;;;;;;;;;;;;;;1904887;28;7099;-63
2023/11/20 04:32:14;;;;;;;;;;;;;;;;;;1905147;28;7119;-63
2023/11/20 04:33:12;;;;;;;;;;;;;;;;;;1904021;28;7045;-64
2023/11/20 04:34:09;;;;;;;;;;;;;;;;;;1905515;28;7016;-64
2023/11/20 04:35:07;;;;;;;;;;;;;;;;;;1905827;28;7134;-64
2023/11/20 04:36:04;;;;;;;;;;;;;;;;;;1905557;28;7514;-63
2023/11/20 04:37:02;;;;;;;;;;;;;;;;;;1905154;28;7008;-64
2023/11/20 04:37:59;;;;;;;;;;;;;;;;;;1904690;28;7009;-64
2023/11/20 04:38:57;;;;;;;;;;;;;;;;;;1904814;28;7050;-63
2023/11/20 04:39:54;;;;;;;;;;;;;;;;;;1905620;28;7112;-64
2023/11/20 04:40:52;;;;;;;;;;;;;;;;;;1905066;28;8018;-64
2023/11/20 04:41:49;;;;;;;;;;;;;;;;;;1905121;28;7099;-64
2023/11/20 04:42:46;;;;;;;;;;;;;;;;;;1905515;28;7006;-64
2023/11/20 04:43:44;;;;;;;;;;;;;;;;;;1904399;28;7345;-63
2023/11/20 04:44:41;;;;;;;;;;;;;;;;;;1905166;28;7037;-64
2023/11/20 04:45:39;;;;;;;;;;;;;;;;;;1904865;28;7012;-63
2023/11/20 04:46:36;;;;;;;;;;;;;;;;;;1903875;28;7008;-64
2023/11/20 04:47:34;;;;;;;;;;;;;;;;;;1905400;28;7011;-64
2023/11/20 04:48:33;;;;;;;;;;;;;;;;;;1904741;28;7160;-64
2023/11/20 04:49:30;;;;;;;;;;;;;;;;;;1904820;28;7003;-64
2023/11/20 04:50:28;;;;;;;;;;;;;;;;;;1905471;28;7308;-64
2023/11/20 04:51:25;;;;;;;;;;;;;;;;;;1903938;28;7017;-64
2023/11/20 04:52:23;;;;;;;;;;;;;;;;;;1904211;28;7111;-63
2023/11/20 04:53:21;;;;;;;;;;;;;;;;;;1904735;28;7016;-64
2023/11/20 04:54:19;;;;;;;;;;;;;;;;;;1904787;28;7120;-63
2023/11/20 04:55:16;;;;;;;;;;;;;;;;;;1905605;28;8053;-63
2023/11/20 04:56:14;;;;;;;;;;;;;;;;;;1904820;28;7013;-64
2023/11/20 04:57:11;;;;;;;;;;;;;;;;;;1904925;28;7137;-64
2023/11/20 04:58:09;;;;;;;;;;;;;;;;;;1905157;28;7056;-64
2023/11/20 04:59:06;;;;;;;;;;;;;;;;;;1905818;28;7029;-63
2023/11/20 05:00:04;;;;;;;;;;;;;;;;;;1905399;28;7366;-64
2023/11/20 05:01:04;;;;;;;;;;;;;;;;;;1905350;28;7009;-64
2023/11/20 05:02:02;;;;;;;;;;;;;;;;;;1904652;28;7009;-63
2023/11/20 05:03:00;;;;;;;;;;;;;;;;;;1905191;28;7028;-64
2023/11/20 05:03:58;;;;;;;;;;;;;;;;;;1905643;28;7104;-63
2023/11/20 05:04:55;;;;;;;;;;;;;;;;;;1905319;28;7314;-64
2023/11/20 05:05:53;;;;;;;;;;;;;;;;;;1904248;28;7129;-64
2023/11/20 05:06:50;;;;;;;;;;;;;;;;;;1905385;28;7304;-64
2023/11/20 05:07:49;;;;;;;;;;;;;;;;;;1905391;28;7029;-64
2023/11/20 05:08:46;;;;;;;;;;;;;;;;;;1904788;28;7017;-64
2023/11/20 05:09:44;;;;;;;;;;;;;;;;;;1905210;28;7009;-63
2023/11/20 05:10:42;;;;;;;;;;;;;;;;;;1905615;28;7045;-64
2023/11/20 05:11:41;;;;;;;;;;;;;;;;;;1905904;28;7373;-64
2023/11/20 05:12:38;;;;;;;;;;;;;;;;;;1905881;28;7040;-63
2023/11/20 05:13:36;;;;;;;;;;;;;;;;;;1905958;28;7009;-64
2023/11/20 05:14:33;;;;;;;;;;;;;;;;;;1904792;28;7013;-63
2023/11/20 05:15:30;;;;;;;;;;;;;;;;;;1903812;28;7008;-64
2023/11/20 05:16:28;;;;;;;;;;;;;;;;;;1904584;28;7096;-64
2023/11/20 05:17:28;;;;;;;;;;;;;;;;;;1904974;28;7016;-63
2023/11/20 05:18:25;;;;;;;;;;;;;;;;;;1904888;28;7326;-63
2023/11/20 05:19:23;;;;;;;;;;;;;;;;;;1905646;28;7095;-64
2023/11/20 05:20:20;;;;;;;;;;;;;;;;;;1905401;28;7116;-63
2023/11/20 05:21:18;;;;;;;;;;;;;;;;;;1905206;28;7017;-64
2023/11/20 05:22:15;;;;;;;;;;;;;;;;;;1905141;28;7053;-64
2023/11/20 05:23:13;;;;;;;;;;;;;;;;;;1905207;28;7017;-64
2023/11/20 05:24:11;;;;;;;;;;;;;;;;;;1905573;28;8057;-64
2023/11/20 05:25:08;;;;;;;;;;;;;;;;;;1905180;28;7016;-63
2023/11/20 05:26:06;;;;;;;;;;;;;;;;;;1906010;28;7010;-64
2023/11/20 05:27:03;;;;;;;;;;;;;;;;;;1905018;28;8008;-64
2023/11/20 05:28:01;;;;;;;;;;;;;;;;;;1905614;28;7012;-64
2023/11/20 05:28:59;;;;;;;;;;;;;;;;;;1905259;28;7134;-64
2023/11/20 05:29:57;;;;;;;;;;;;;;;;;;1905406;28;7008;-64
2023/11/20 05:30:54;;;;;;;;;;;;;;;;;;1905336;28;7147;-63
2023/11/20 05:31:52;;;;;;;;;;;;;;;;;;1905439;28;7020;-64
2023/11/20 05:32:49;;;;;;;;;;;;;;;;;;1905661;28;7004;-64
2023/11/20 05:33:46;;;;;;;;;;;;;;;;;;1905206;28;7033;-64
2023/11/20 05:34:47;;;;;;;;;;;;;;;;;;1904982;28;7007;-63
2023/11/20 05:35:44;;;;;;;;;;;;;;;;;;1905007;28;7107;-64
2023/11/20 05:36:42;;;;;;;;;;;;;;;;;;1904971;28;7007;-63
2023/11/20 05:37:39;;;;;;;;;;;;;;;;;;1905055;28;8011;-64
2023/11/20 05:38:37;;;;;;;;;;;;;;;;;;1904924;28;8187;-63
2023/11/20 05:39:35;;;;;;;;;;;;;;;;;;1905049;28;7091;-63
2023/11/20 05:40:33;;;;;;;;;;;;;;;;;;1904617;28;7008;-63
2023/11/20 05:41:31;;;;;;;;;;;;;;;;;;1904777;28;7162;-64
2023/11/20 05:42:29;;;;;;;;;;;;;;;;;;1904614;28;7119;-64
2023/11/20 05:43:26;;;;;;;;;;;;;;;;;;1904861;28;7092;-63
2023/11/20 05:44:24;;;;;;;;;;;;;;;;;;1905874;28;7037;-64
2023/11/20 05:45:21;;;;;;;;;;;;;;;;;;1905086;28;8505;-64
2023/11/20 05:46:19;;;;;;;;;;;;;;;;;;1905135;28;7005;-64
2023/11/20 05:47:17;;;;;;;;;;;;;;;;;;1905326;28;7091;-64
2023/11/20 05:48:14;;;;;;;;;;;;;;;;;;1904989;28;7099;-64
2023/11/20 05:49:12;;;;;;;;;;;;;;;;;;1905162;28;7091;-64
2023/11/20 05:50:09;;;;;;;;;;;;;;;;;;1903932;28;7132;-64
2023/11/20 05:51:07;;;;;;;;;;;;;;;;;;1905238;28;7040;-63
2023/11/20 05:52:04;;;;;;;;;;;;;;;;;;1896773;28;7038;-64
2023/11/20 05:53:03;;;;;;;;;;;;;;;;;;1896574;28;7103;-64
2023/11/20 05:54:00;;;;;;;;;;;;;;;;;;1904414;28;7146;-64
2023/11/20 05:54:58;;;;;;;;;;;;;;;;;;1905117;28;9309;-64
2023/11/20 05:55:55;;;;;;;;;;;;;;;;;;1904791;28;7112;-63
2023/11/20 05:56:53;;;;;;;;;;;;;;;;;;1905373;28;7013;-64
2023/11/20 05:57:50;;;;;;;;;;;;;;;;;;1905223;28;7044;-64
2023/11/20 05:58:48;;;;;;;;;;;;;;;;;;1903469;28;7503;-64
2023/11/20 05:59:45;;;;;;;;;;;;;;;;;;1900086;28;7940;-63
2023/11/20 06:00:43;;;;;;;;;;;;;;;;;;1902139;28;7264;-64
2023/11/20 06:01:42;;;;;;;;;;;;;;;;;;1904280;28;7012;-64
2023/11/20 06:02:40;;;;;;;;;;;;;;;;;;1905390;28;7032;-63
2023/11/20 06:03:37;;;;;;;;;;;;;;;;;;1905238;28;7013;-63
2023/11/20 06:04:35;;;;;;;;;;;;;;;;;;1905365;28;7119;-64
2023/11/20 06:05:32;;;;;;;;;;;;;;;;;;1904456;28;8998;-64
2023/11/20 06:06:30;;;;;;;;;;;;;;;;;;1904244;28;7962;-64
2023/11/20 06:07:27;;;;;;;;;;;;;;;;;;1904947;28;7100;-63
2023/11/20 06:08:25;;;;;;;;;;;;;;;;;;1904648;28;7403;-64
2023/11/20 06:09:22;;;;;;;;;;;;;;;;;;1905084;28;7096;-64
2023/11/20 06:10:20;;;;;;;;;;;;;;;;;;1904717;28;7013;-64
2023/11/20 06:11:20;;;;;;;;;;;;;;;;;;1903914;28;7100;-64
2023/11/20 06:12:18;;;;;;;;;;;;;;;;;;1904499;28;7376;-64
2023/11/20 06:13:16;;;;;;;;;;;;;;;;;;1904804;28;7046;-63
2023/11/20 06:14:15;;;;;;;;;;;;;;;;;;1905069;28;8126;-64
2023/11/20 06:15:13;;;;;;;;;;;;;;;;;;1904789;28;7143;-64
2023/11/20 06:16:16;;;;;;;;;;;;;;;;;;1904971;28;7009;-64
2023/11/20 06:17:13;;;;;;;;;;;;;;;;;;1904662;28;7008;-64
2023/11/20 06:18:11;;;;;;;;;;;;;;;;;;1896576;28;7204;-64
2023/11/20 06:19:08;;;;;;;;;;;;;;;;;;1896734;28;7008;-64
2023/11/20 06:20:08;;;;;;;;;;;;;;;;;;1903897;28;8046;-64
2023/11/20 06:21:06;;;;;;;;;;;;;;;;;;1904812;28;7088;-64
2023/11/20 06:22:03;;;;;;;;;;;;;;;;;;1905717;28;7020;-63
2023/11/20 06:23:01;;;;;;;;;;;;;;;;;;1905202;28;7013;-65
2023/11/20 06:24:01;;;;;;;;;;;;;;;;;;1905373;28;8185;-63
2023/11/20 06:24:59;;;;;;;;;;;;;;;;;;1904490;28;7000;-64
2023/11/20 06:25:56;;;;;;;;;;;;;;;;;;1904656;28;7045;-64
2023/11/20 06:26:54;;;;;;;;;;;;;;;;;;1904788;28;8491;-64
2023/11/20 06:27:52;;;;;;;;;;;;;;;;;;1904764;28;7127;-64
2023/11/20 06:28:49;;;;;;;;;;;;;;;;;;1905096;28;7134;-64
2023/11/20 06:29:47;;;;;;;;;;;;;;;;;;1904504;28;7024;-63
2023/11/20 06:30:45;;;;;;;;;;;;;;;;;;1904697;28;7009;-64
2023/11/20 06:31:42;;;;;;;;;;;;;;;;;;1903729;28;8647;-64
2023/11/20 06:32:40;;;;;;;;;;;;;;;;;;1903216;28;7009;-64
2023/11/20 06:33:38;;;;;;;;;;;;;;;;;;1904985;28;8121;-64
2023/11/20 06:34:35;;;;;;;;;;;;;;;;;;1905122;28;7008;-63
2023/11/20 06:35:33;;;;;;;;;;;;;;;;;;1904476;28;7044;-64
2023/11/20 06:36:30;;;;;;;;;;;;;;;;;;1905043;28;7008;-64
2023/11/20 06:37:28;;;;;;;;;;;;;;;;;;1905445;28;7016;-64
2023/11/20 06:38:25;;;;;;;;;;;;;;;;;;1904065;28;8076;-64
2023/11/20 06:39:23;;;;;;;;;;;;;;;;;;1903955;28;7143;-64
2023/11/20 06:40:20;;;;;;;;;;;;;;;;;;1904929;28;7013;-64
2023/11/20 06:41:18;;;;;;;;;;;;;;;;;;1905186;28;7017;-64
2023/11/20 06:42:15;;;;;;;;;;;;;;;;;;1904733;28;7092;-64